Time;durP1;ratioP1;P1;durP2;ratioP2;P2;SDS_P1;SDS_P2;PMS_P1;PMS_P2;Temp;Humidity;BMP_temperature;BMP_pressure;BME280_temperature;BME280_humidity;BME280_pressure;Samples;Min_cycle;Max_cycle;Signal;HPM_P1;HPM_P2
2022/11/26 00:02:13;;;;;;;15.65;7.78;;;;;;;4.28;73.38;100609.06;5088602;28;20115;-26
2022/11/26 00:04:38;;;;;;;14.80;7.55;;;;;;;4.47;73.28;100628.22;5088304;28;20077;-26
2022/11/26 00:07:03;;;;;;;17.85;7.80;;;;;;;4.44;73.56;100605.59;5070284;28;20028;-30
2022/11/26 00:09:29;;;;;;;19.75;11.63;;;;;;;4.52;73.14;100599.50;5088581;28;20028;-27
2022/11/26 00:11:54;;;;;;;23.75;12.68;;;;;;;4.67;72.64;100623.41;5088424;28;20078;-28
2022/11/26 00:14:20;;;;;;;25.00;12.65;;;;;;;4.56;72.87;100625.41;5088396;28;20419;-32
2022/11/26 00:16:45;;;;;;;14.80;7.88;;;;;;;4.36;72.59;100606.41;5069900;28;20028;-27
2022/11/26 00:19:10;;;;;;;11.60;7.10;;;;;;;4.53;72.74;100622.25;5088105;28;20137;-26
2022/11/26 00:21:39;;;;;;;45.58;26.17;;;;;;;4.19;73.75;100610.88;5088452;28;20024;-27
2022/11/26 00:24:06;;;;;;;;;;;;;;;4.39;73.26;100636.94;5070499;28;20078;-26
2022/11/26 00:26:32;;;;;;;27.15;16.60;;;;;;;4.36;73.66;100643.38;5088019;28;19966;-27
2022/11/26 00:28:59;;;;;;;19.20;12.80;;;;;;;4.28;73.88;100611.69;5088311;28;20031;-26
2022/11/26 00:31:25;;;;;;;27.02;14.57;;;;;;;4.19;73.47;100634.63;5069785;28;20522;-27
2022/11/26 00:33:51;;;;;;;17.33;10.23;;;;;;;4.21;74.51;100634.47;5069453;28;20070;-26
2022/11/26 00:36:20;;;;;;;21.00;11.80;;;;;;;4.21;75.18;100634.47;5069953;28;20028;-27
2022/11/26 00:38:50;;;;;;;19.80;11.23;;;;;;;4.13;75.68;100637.94;5087877;28;20031;-25
2022/11/26 00:41:18;;;;;;;27.45;15.60;;;;;;;3.91;75.86;100617.44;5087929;28;20119;-29
2022/11/26 00:43:45;;;;;;;17.75;10.48;;;;;;;3.83;76.40;100636.69;5087667;28;20047;-26
2022/11/26 00:46:15;;;;;;;21.27;10.98;;;;;;;3.91;76.25;100633.25;5087598;28;20036;-29
2022/11/26 00:48:40;;;;;;;18.50;10.63;;;;;;;4.00;75.08;100630.50;5069098;28;20071;-26
2022/11/26 00:51:11;;;;;;;20.00;11.13;;;;;;;3.95;75.70;100643.31;5087872;28;20068;-25
2022/11/26 00:53:37;;;;;;;16.42;9.57;;;;;;;3.72;76.62;100615.88;5087511;28;20060;-30
2022/11/26 00:56:02;;;;;;;15.15;8.20;;;;;;;3.95;75.36;100639.88;5069609;28;20518;-25
2022/11/26 00:58:29;;;;;;;14.48;7.57;;;;;;;3.94;75.31;100632.94;5069119;28;20028;-29
2022/11/26 01:00:58;;;;;;;13.38;6.95;;;;;;;3.61;76.43;100627.56;5087273;28;20827;-26
2022/11/26 01:03:24;;;;;;;13.27;6.72;;;;;;;3.67;75.67;100632.19;5087622;28;20036;-26
2022/11/26 01:05:56;;;;;;;13.30;7.03;;;;;;;3.20;77.24;100612.38;5087394;28;20108;-28
2022/11/26 01:08:31;;;;;;;13.48;6.55;;;;;;;3.34;77.26;100636.53;5087378;28;20097;-26
2022/11/26 01:10:59;;;;;;;12.90;6.97;;;;;;;3.16;77.16;100603.13;5087298;28;20480;-26
2022/11/26 01:13:26;;;;;;;12.27;7.23;;;;;;;3.61;76.01;100648.66;5068983;28;20411;-25
2022/11/26 01:15:53;;;;;;;11.98;7.28;;;;;;;3.43;75.90;100635.56;5087753;28;20089;-25
2022/11/26 01:18:20;;;;;;;11.77;6.25;;;;;;;3.34;75.95;100636.53;5087408;28;20031;-27
2022/11/26 01:20:46;;;;;;;12.18;6.97;;;;;;;3.57;74.69;100637.59;5087243;28;20040;-28
2022/11/26 01:23:15;;;;;;;12.43;6.88;;;;;;;3.53;74.00;100617.78;5087403;28;20036;-26
2022/11/26 01:25:41;;;;;;;11.85;6.55;;;;;;;3.53;74.16;100630.97;5087047;28;20046;-30
2022/11/26 01:28:11;;;;;;;11.23;6.15;;;;;;;3.26;74.27;100613.56;5087355;28;20143;-27
2022/11/26 01:30:38;;;;;;;13.63;7.13;;;;;;;3.52;73.66;100631.97;5087163;28;20113;-26
2022/11/26 01:33:03;;;;;;;14.80;7.60;;;;;;;3.38;74.62;100614.13;5087228;28;20028;-26
2022/11/26 01:35:29;;;;;;;19.40;9.65;;;;;;;3.27;73.16;100599.44;5068806;28;20036;-27
2022/11/26 01:37:55;;;;;;;14.93;9.00;;;;;;;3.66;73.46;100645.53;5086937;28;20031;-25
2022/11/26 01:40:52;;;;;;;16.85;8.88;;;;;;;3.18;74.83;100629.34;5086936;28;20028;-31
2022/11/26 01:43:27;;;;;;;14.23;7.30;;;;;;;2.90;75.74;100626.91;5087244;28;20028;-26
2022/11/26 01:45:54;;;;;;;14.15;8.05;;;;;;;3.22;74.55;100606.97;5068708;28;20024;-25
2022/11/26 01:48:32;;;;;;;14.98;8.65;;;;;;;3.43;74.18;100635.56;5089937;28;20408;-26
2022/11/26 01:51:03;;;;;;;16.33;7.63;;;;;;;3.07;74.69;100619.09;5090541;28;20052;-26
2022/11/26 01:53:31;;;;;;;14.32;7.30;;;;;;;2.42;77.88;100639.53;5091147;28;20059;-27
2022/11/26 01:56:26;;;;;;;14.45;6.82;;;;;;;2.17;79.41;100649.00;5072659;28;20119;-28
2022/11/26 01:59:27;;;;;;;16.15;6.75;;;;;;;2.00;80.01;100653.28;5079834;28;20440;-27
2022/11/26 02:01:53;;;;;;;12.57;6.10;;;;;;;2.12;80.05;100630.19;5072503;28;20044;-27
2022/11/26 02:04:24;;;;;;;14.85;7.47;;;;;;;2.63;77.88;100634.91;5090487;28;20028;-30
2022/11/26 02:06:52;;;;;;;13.82;7.38;;;;;;;2.58;77.88;100636.22;5090662;28;20039;-27
2022/11/26 02:09:18;;;;;;;13.02;7.22;;;;;;;2.66;77.03;100630.19;5090631;28;20541;-26
2022/11/26 02:11:44;;;;;;;14.02;7.35;;;;;;;2.74;75.79;100629.44;5072157;28;20040;-26
2022/11/26 02:14:25;;;;;;;13.38;7.15;;;;;;;2.55;76.31;100641.75;5090290;28;20020;-26
2022/11/26 02:17:03;;;;;;;9.95;6.22;;;;;;;2.58;76.60;100646.75;5090569;28;20118;-25
2022/11/26 02:19:47;;;;;;;15.68;7.70;;;;;;;2.60;76.33;100657.94;5090213;28;20034;-26
2022/11/26 02:22:40;;;;;;;12.65;6.82;;;;;;;2.78;75.78;100657.94;5071921;28;20050;-26
2022/11/26 02:25:16;;;;;;;13.27;6.97;;;;;;;2.73;76.23;100660.19;5071901;28;20036;-27
2022/11/26 02:28:27;;;;;;;13.43;7.75;;;;;;;2.71;76.83;100670.03;5090390;28;20036;-26
2022/11/26 02:31:02;;;;;;;16.33;8.90;;;;;;;2.52;75.66;100647.34;5072106;28;20024;-26
2022/11/26 02:33:41;;;;;;;12.23;7.18;;;;;;;2.26;77.74;100667.50;5090024;28;20036;-27
2022/11/26 02:36:13;;;;;;;15.43;7.38;;;;;;;1.94;79.02;100682.81;5090066;28;20442;-25
2022/11/26 02:38:40;;;;;;;13.35;6.90;;;;;;;2.07;78.36;100700.88;5089817;28;20411;-26
2022/11/26 02:41:06;;;;;;;15.05;7.05;;;;;;;2.13;77.94;100681.03;5089923;28;20613;-25
2022/11/26 02:43:34;;;;;;;15.75;8.70;;;;;;;2.17;77.66;100679.78;5071693;28;20032;-25
2022/11/26 02:46:04;;;;;;;14.00;7.40;;;;;;;2.38;76.92;100698.72;5071977;28;20024;-25
2022/11/26 02:48:34;;;;;;;18.33;8.93;;;;;;;2.46;77.91;100699.78;5071622;28;20468;-26
2022/11/26 02:51:11;;;;;;;15.85;7.63;;;;;;;2.14;78.37;100690.59;5089894;28;20503;-26
2022/11/26 02:53:38;;;;;;;15.73;8.07;;;;;;;1.87;79.12;100688.81;5071355;28;20032;-26
2022/11/26 02:56:16;;;;;;;16.42;8.93;;;;;;;2.17;79.11;100708.72;5089953;28;20471;-29
2022/11/26 02:58:42;;;;;;;14.73;8.67;;;;;;;1.82;80.21;100707.66;5088267;28;20473;-27
2022/11/26 03:01:14;;;;;;;15.82;8.23;;;;;;;2.16;79.99;100704.41;5071225;28;20027;-28
2022/11/26 03:03:45;;;;;;;16.55;8.70;;;;;;;2.19;80.06;100701.50;5089621;28;20028;-26
2022/11/26 03:06:13;;;;;;;16.30;8.57;;;;;;;2.44;78.47;100685.94;5089689;28;20404;-25
2022/11/26 03:08:39;;;;;;;16.42;9.05;;;;;;;2.52;77.96;100704.44;5089388;28;20034;-25
2022/11/26 03:11:05;;;;;;;17.02;9.27;;;;;;;2.67;76.86;100708.19;5089626;28;20024;-24
2022/11/26 03:13:31;;;;;;;21.83;9.82;;;;;;;2.26;78.34;100699.91;5089746;28;20961;-25
2022/11/26 03:15:56;;;;;;;20.25;11.00;;;;;;;2.68;76.70;100709.88;5071209;28;20036;-25
2022/11/26 03:18:22;;;;;;;17.75;10.32;;;;;;;2.63;75.51;100685.78;5070694;28;20629;-26
2022/11/26 03:20:47;;;;;;;17.35;9.38;;;;;;;2.71;74.23;100714.81;5089390;28;20036;-26
2022/11/26 03:23:13;;;;;;;15.80;8.98;;;;;;;2.50;75.49;100714.31;5071225;28;20028;-26
2022/11/26 03:25:38;;;;;;;15.88;8.60;;;;;;;2.45;75.83;100713.91;5089218;28;20036;-30
2022/11/26 03:28:04;;;;;;;15.30;8.13;;;;;;;2.29;75.59;100709.31;5070922;28;20119;-26
2022/11/26 03:30:30;;;;;;;13.55;7.85;;;;;;;2.38;76.17;100719.78;5088818;28;20032;-26
2022/11/26 03:32:55;;;;;;;16.70;8.05;;;;;;;2.18;76.16;100724.34;5088724;28;20031;-25
2022/11/26 03:35:21;;;;;;;18.58;9.35;;;;;;;2.06;76.44;100727.31;5089181;28;20097;-25
2022/11/26 03:37:46;;;;;;;16.45;9.70;;;;;;;1.64;77.29;100698.91;5088923;28;20024;-25
2022/11/26 03:40:12;;;;;;;16.85;9.57;;;;;;;1.94;76.85;100703.88;5070815;28;20043;-25
2022/11/26 03:42:37;;;;;;;13.88;8.45;;;;;;;2.07;76.90;100726.38;5088621;28;20442;-26
2022/11/26 03:45:04;;;;;;;14.20;8.73;;;;;;;2.06;76.69;100708.91;5089017;28;20035;-25
2022/11/26 03:47:29;;;;;;;16.77;9.88;;;;;;;2.09;76.85;100722.59;5088320;28;20428;-29
2022/11/26 03:49:55;;;;;;;16.98;9.40;;;;;;;2.50;75.56;100743.28;5088664;28;20044;-28
2022/11/26 03:52:20;;;;;;;13.82;8.82;;;;;;;2.01;76.16;100731.22;5088473;28;20035;-27
2022/11/26 03:54:45;;;;;;;16.48;9.07;;;;;;;1.92;77.01;100740.00;5089103;28;20036;-24
2022/11/26 03:57:11;;;;;;;17.23;9.00;;;;;;;1.45;79.47;100753.19;5088713;28;20055;-29
2022/11/26 03:59:36;;;;;;;18.02;9.73;;;;;;;1.59;77.02;100752.75;5088571;28;20407;-26
2022/11/26 04:02:03;;;;;;;16.08;9.10;;;;;;;1.69;77.52;100755.31;5088417;28;20059;-29
2022/11/26 04:04:29;;;;;;;18.75;9.77;;;;;;;1.86;76.63;100745.00;5088190;28;20020;-26
2022/11/26 04:06:54;;;;;;;23.05;9.93;;;;;;;1.98;76.58;100735.94;5088481;28;20031;-27
2022/11/26 04:09:19;;;;;;;17.45;9.40;;;;;;;2.18;76.00;100763.00;5070103;28;20023;-27
2022/11/26 04:11:45;;;;;;;20.88;10.75;;;;;;;2.03;76.53;100762.66;5069693;28;20028;-29
2022/11/26 04:14:10;;;;;;;17.33;9.30;;;;;;;1.95;76.68;100776.53;5088038;28;20070;-26
2022/11/26 04:16:36;;;;;;;19.88;10.05;;;;;;;2.10;77.00;100768.16;5052894;28;20047;-28
2022/11/26 04:19:01;;;;;;;18.67;10.52;;;;;;;2.11;75.88;100761.94;5069657;28;20084;-27
2022/11/26 04:21:27;;;;;;;29.98;15.75;;;;;;;1.86;76.98;100771.31;5088555;28;20046;-28
2022/11/26 04:23:52;;;;;;;29.15;17.02;;;;;;;1.48;78.94;100767.84;5070079;28;20032;-26
2022/11/26 04:26:18;;;;;;;29.52;16.85;;;;;;;1.82;78.47;100773.41;5069677;28;20039;-26
2022/11/26 04:28:43;;;;;;;33.53;17.02;;;;;;;1.58;78.98;100774.72;5087840;28;20039;-27
2022/11/26 04:31:09;;;;;;;33.90;14.15;;;;;;;1.69;78.88;100775.53;5087615;28;20474;-28
2022/11/26 04:33:35;;;;;;;32.03;14.35;;;;;;;2.16;76.58;100772.84;5088240;28;20085;-31
2022/11/26 04:36:00;;;;;;;27.60;13.85;;;;;;;2.19;76.44;100783.09;5088046;28;20399;-26
2022/11/26 04:38:26;;;;;;;28.70;14.50;;;;;;;1.65;77.08;100761.00;5087767;28;20085;-26
2022/11/26 04:40:52;;;;;;;36.42;17.65;;;;;;;1.15;79.09;100767.34;5087735;28;20040;-28
2022/11/26 04:43:17;;;;;;;41.53;19.35;;;;;;;1.00;79.80;100796.69;5087769;28;20400;-25
2022/11/26 04:45:43;;;;;;;21.13;10.55;;;;;;;1.02;78.94;100807.03;5069400;28;20028;-26
2022/11/26 04:48:08;;;;;;;33.25;13.60;;;;;;;1.04;78.84;100784.06;5087369;28;20773;-25
2022/11/26 04:50:33;;;;;;;29.05;14.07;;;;;;;1.22;78.91;100799.16;5087724;28;20052;-25
2022/11/26 04:52:59;;;;;;;32.10;16.08;;;;;;;1.16;78.73;100796.09;5087734;28;20107;-27
2022/11/26 04:55:24;;;;;;;27.95;15.73;;;;;;;1.16;78.97;100809.22;5087865;28;20032;-26
2022/11/26 04:57:50;;;;;;;24.67;14.20;;;;;;;1.29;79.82;100805.47;5087555;28;20063;-25
2022/11/26 05:00:17;;;;;;;24.73;13.18;;;;;;;1.22;81.43;100797.34;5087541;28;20437;-28
2022/11/26 05:02:43;;;;;;;25.52;13.90;;;;;;;0.84;82.48;100791.16;5068949;28;20063;-28
2022/11/26 05:05:08;;;;;;;27.98;14.05;;;;;;;0.90;80.77;100789.75;5087598;28;20104;-26
2022/11/26 05:07:34;;;;;;;24.45;13.98;;;;;;;1.33;78.89;100791.13;5087699;28;20032;-25
2022/11/26 05:10:00;;;;;;;24.25;13.43;;;;;;;1.51;79.11;100801.72;5069176;28;20032;-27
2022/11/26 05:12:25;;;;;;;27.55;14.88;;;;;;;1.66;78.79;100823.16;5087137;28;20020;-26
2022/11/26 05:14:51;;;;;;;25.35;14.30;;;;;;;1.46;78.65;100817.91;5086283;28;20040;-27
2022/11/26 05:17:17;;;;;;;31.33;15.93;;;;;;;1.59;78.23;100836.00;5068824;28;20035;-26
2022/11/26 05:19:42;;;;;;;28.17;14.88;;;;;;;1.83;77.46;100840.00;5087336;28;20024;-26
2022/11/26 05:22:08;;;;;;;26.42;14.07;;;;;;;1.70;79.52;100848.19;5087021;28;20099;-25
2022/11/26 05:24:33;;;;;;;26.45;14.07;;;;;;;1.57;78.89;100825.66;5086986;28;20061;-26
2022/11/26 05:26:58;;;;;;;44.53;20.20;;;;;;;1.56;79.63;100860.78;5087063;28;20043;-26
2022/11/26 05:29:24;;;;;;;46.47;19.13;;;;;;;1.70;80.14;100861.34;5087396;28;20028;-27
2022/11/26 05:31:50;;;;;;;58.63;20.20;;;;;;;1.70;80.58;100853.47;5086783;28;20028;-26
2022/11/26 05:34:16;;;;;;;34.08;15.77;;;;;;;1.60;80.91;100859.53;5087279;28;20114;-26
2022/11/26 05:36:41;;;;;;;24.60;12.25;;;;;;;1.42;81.42;100853.34;5087194;28;20044;-29
2022/11/26 05:39:06;;;;;;;26.35;11.57;;;;;;;1.23;80.66;100858.59;5086890;28;20385;-28
2022/11/26 05:41:32;;;;;;;19.58;10.23;;;;;;;1.08;81.09;100840.63;5086974;28;20028;-27
2022/11/26 05:43:57;;;;;;;22.08;9.88;;;;;;;1.24;80.49;100855.84;5068584;28;20028;-27
2022/11/26 05:46:23;;;;;;;21.60;9.95;;;;;;;1.20;81.50;100865.78;5068176;28;20418;-25
2022/11/26 05:48:48;;;;;;;18.10;9.52;;;;;;;1.31;81.48;100861.34;5086675;28;20031;-26
2022/11/26 05:51:14;;;;;;;27.42;8.93;;;;;;;1.58;80.44;100874.63;5068500;28;20454;-26
2022/11/26 05:53:39;;;;;;;18.10;8.77;;;;;;;1.58;80.30;100864.13;5086648;28;20039;-25
2022/11/26 05:56:05;;;;;;;14.85;8.35;;;;;;;1.93;78.57;100867.91;5068565;28;20020;-26
2022/11/26 05:58:30;;;;;;;18.08;9.18;;;;;;;2.35;77.55;100867.50;5067873;28;20059;-25
2022/11/26 06:00:56;;;;;;;27.30;13.30;;;;;;;1.98;77.55;100870.09;5086332;28;20039;-29
2022/11/26 06:03:21;;;;;;;20.17;10.95;;;;;;;1.32;78.80;100874.38;5086656;28;20035;-26
2022/11/26 06:05:46;;;;;;;22.50;11.63;;;;;;;0.98;79.78;100863.44;5086759;28;20028;-24
2022/11/26 06:08:12;;;;;;;25.45;12.60;;;;;;;1.03;80.71;100884.06;5068468;28;20105;-29
2022/11/26 06:10:39;;;;;;;29.08;13.48;;;;;;;1.54;79.98;100886.41;5068002;28;20028;-27
2022/11/26 06:13:05;;;;;;;31.35;14.57;;;;;;;1.82;77.72;100870.72;5086499;28;20032;-27
2022/11/26 06:15:30;;;;;;;24.98;13.70;;;;;;;1.95;77.28;100896.72;5086306;28;20384;-25
2022/11/26 06:17:56;;;;;;;22.67;11.65;;;;;;;2.18;78.43;100890.13;5086782;28;20035;-29
2022/11/26 06:20:21;;;;;;;16.15;8.82;;;;;;;2.51;79.83;100897.63;5067768;28;20153;-28
2022/11/26 06:22:47;;;;;;;17.67;10.00;;;;;;;2.45;79.38;100875.31;5068198;28;20063;-25
2022/11/26 06:25:13;;;;;;;18.60;10.27;;;;;;;2.86;77.64;100899.53;5086369;28;20399;-32
2022/11/26 06:27:39;;;;;;;21.75;10.98;;;;;;;2.56;78.92;100875.16;5086306;28;20036;-25
2022/11/26 06:30:07;;;;;;;19.25;10.50;;;;;;;2.61;79.06;100901.84;5086260;28;20081;-26
2022/11/26 06:32:33;;;;;;;19.67;9.75;;;;;;;2.98;78.01;100902.75;5068022;28;20032;-28
2022/11/26 06:34:59;;;;;;;17.67;10.93;;;;;;;2.96;77.53;100881.00;5089560;28;20032;-24
2022/11/26 06:37:24;;;;;;;21.30;10.68;;;;;;;3.18;76.70;100896.38;5089939;28;20039;-27
2022/11/26 06:39:51;;;;;;;18.70;10.52;;;;;;;3.37;76.61;100900.69;5089838;28;20024;-28
2022/11/26 06:42:17;;;;;;;23.23;12.75;;;;;;;3.60;76.02;100919.50;5071398;28;20647;-27
2022/11/26 06:44:43;;;;;;;21.38;12.13;;;;;;;3.43;77.28;100915.06;5071254;28;20048;-28
2022/11/26 06:47:12;;;;;;;18.70;10.57;;;;;;;3.65;76.86;100915.59;5071684;28;20066;-27
2022/11/26 06:49:38;;;;;;;24.73;14.82;;;;;;;3.81;76.91;100915.72;5089724;28;20060;-28
2022/11/26 06:52:04;;;;;;;19.45;11.20;;;;;;;4.08;75.95;100916.53;5071491;28;20038;-26
2022/11/26 06:54:29;;;;;;;21.13;11.02;;;;;;;3.98;75.87;100925.41;5089434;28;20249;-26
2022/11/26 06:56:55;;;;;;;44.42;19.30;;;;;;;3.95;76.41;100925.69;5089570;28;20024;-26
2022/11/26 06:59:20;;;;;;;23.48;11.70;;;;;;;4.09;76.40;100905.03;5070909;28;20123;-28
2022/11/26 07:01:46;;;;;;;17.88;10.00;;;;;;;4.09;76.26;100910.31;5089639;28;20035;-26
2022/11/26 07:04:12;;;;;;;48.53;18.58;;;;;;;4.34;75.64;100929.75;5089467;28;20042;-26
2022/11/26 07:06:38;;;;;;;36.33;13.52;;;;;;;4.11;75.34;100909.16;5070886;28;20047;-29
2022/11/26 07:09:07;;;;;;;21.45;10.02;;;;;;;4.25;74.58;100910.41;5070787;28;20131;-28
2022/11/26 07:11:33;;;;;;;16.63;9.35;;;;;;;4.50;74.49;100910.50;5089251;28;20055;-28
2022/11/26 07:14:00;;;;;;;16.02;8.70;;;;;;;4.63;74.14;100934.66;5089487;28;20082;-28
2022/11/26 07:16:26;;;;;;;25.92;12.02;;;;;;;4.65;74.04;100916.84;5071063;28;20024;-25
2022/11/26 07:18:54;;;;;;;18.15;9.57;;;;;;;4.79;73.35;100886.34;5070842;28;20128;-26
2022/11/26 07:21:20;;;;;;;29.33;13.47;;;;;;;5.18;73.03;100922.78;5070287;28;20396;-26
2022/11/26 07:23:46;;;;;;;21.27;11.52;;;;;;;5.10;72.39;100904.25;5070142;28;20365;-27
2022/11/26 07:26:13;;;;;;;13.82;8.82;;;;;;;5.33;72.72;100936.19;5088714;28;20562;-29
2022/11/26 07:28:39;;;;;;;15.93;8.95;;;;;;;5.53;71.92;100937.53;5070415;28;20020;-28
2022/11/26 07:31:11;;;;;;;20.17;11.50;;;;;;;5.73;70.50;100939.88;5088624;28;20031;-28
2022/11/26 07:33:37;;;;;;;17.30;10.57;;;;;;;5.79;70.36;100941.84;5070672;28;20492;-26
2022/11/26 07:36:05;;;;;;;15.20;9.02;;;;;;;5.95;69.98;100920.69;5088810;28;20140;-27
2022/11/26 07:38:31;;;;;;;17.95;9.05;;;;;;;6.03;69.16;100941.84;5070220;28;20024;-26
2022/11/26 07:41:09;;;;;;;15.18;9.05;;;;;;;6.01;68.28;100948.31;5088602;28;20038;-26
2022/11/26 07:43:36;;;;;;;16.98;10.38;;;;;;;6.12;68.47;100936.56;5070553;28;20043;-28
2022/11/26 07:46:04;;;;;;;19.17;10.33;;;;;;;6.15;68.56;100936.19;5088251;28;20128;-29
2022/11/26 07:48:33;;;;;;;16.27;9.50;;;;;;;5.94;68.67;100939.34;5088369;28;20035;-30
2022/11/26 07:50:59;;;;;;;21.77;12.05;;;;;;;5.88;69.01;100940.84;5088451;28;20365;-28
2022/11/26 07:53:33;;;;;;;20.08;11.10;;;;;;;5.78;69.44;100913.72;5088125;28;20024;-26
2022/11/26 07:55:59;;;;;;;18.48;9.35;;;;;;;6.23;68.92;100931.75;5070656;28;20480;-25
2022/11/26 07:58:25;;;;;;;16.13;9.93;;;;;;;6.47;67.34;100927.34;5088055;28;20035;-26
2022/11/26 08:00:51;;;;;;;14.65;8.48;;;;;;;6.87;67.74;100922.06;5088479;28;20066;-25
2022/11/26 08:03:18;;;;;;;14.50;9.02;;;;;;;7.02;66.00;100917.66;5088294;28;20055;-26
2022/11/26 08:05:44;;;;;;;14.57;8.50;;;;;;;7.09;66.41;100923.94;5088589;28;20028;-25
2022/11/26 08:08:10;;;;;;;15.75;8.80;;;;;;;7.15;65.81;100902.03;5069882;28;20035;-26
2022/11/26 08:10:37;;;;;;;14.23;6.93;;;;;;;7.51;64.06;100921.81;5088169;28;20028;-29
2022/11/26 08:13:03;;;;;;;13.45;8.00;;;;;;;7.60;63.49;100932.22;5088445;28;20035;-26
2022/11/26 08:15:28;;;;;;;12.00;7.53;;;;;;;7.91;63.07;100931.28;5088129;28;20028;-28
2022/11/26 08:17:55;;;;;;;12.60;7.30;;;;;;;7.99;62.89;100925.91;5088059;28;20024;-27
2022/11/26 08:20:20;;;;;;;11.00;6.63;;;;;;;7.98;60.97;100908.28;5069524;28;20071;-27
2022/11/26 08:22:46;;;;;;;13.10;7.20;;;;;;;8.36;59.33;100921.53;5069793;28;20063;-26
2022/11/26 08:25:11;;;;;;;9.55;5.63;;;;;;;8.14;59.09;100917.13;5087977;28;20539;-26
2022/11/26 08:27:37;;;;;;;10.07;5.55;;;;;;;8.37;59.51;100931.13;5069629;28;20036;-31
2022/11/26 08:30:03;;;;;;;9.82;5.88;;;;;;;8.63;57.76;100932.56;5087914;28;20028;-28
2022/11/26 08:32:29;;;;;;;9.18;5.85;;;;;;;8.56;59.26;100918.34;5069426;28;20831;-31
2022/11/26 08:34:54;;;;;;;10.73;5.72;;;;;;;8.75;58.91;100928.41;5087556;28;20055;-28
2022/11/26 08:37:20;;;;;;;12.77;7.72;;;;;;;8.96;57.89;100927.63;5087495;28;20153;-28
2022/11/26 08:39:45;;;;;;;10.95;6.47;;;;;;;9.14;56.91;100940.53;5087676;28;20024;-26
2022/11/26 08:42:10;;;;;;;11.25;6.07;;;;;;;8.87;56.96;100922.59;5087746;28;20089;-28
2022/11/26 08:44:36;;;;;;;69.03;39.22;;;;;;;8.72;58.96;100926.09;5087251;28;20784;-30
2022/11/26 08:47:01;;;;;;;10.25;5.72;;;;;;;8.95;57.60;100938.44;5087481;28;20023;-29
2022/11/26 08:49:27;;;;;;;12.82;6.70;;;;;;;8.85;58.11;100928.94;5087539;28;20482;-29
2022/11/26 08:51:55;;;;;;;13.15;6.93;;;;;;;9.34;57.24;100948.75;5087106;28;20050;-27
2022/11/26 08:54:21;;;;;;;13.85;7.20;;;;;;;9.38;56.68;100930.56;5087198;28;20027;-28
2022/11/26 08:56:46;;;;;;;13.00;7.68;;;;;;;9.67;56.24;100931.44;5086558;28;20035;-28
2022/11/26 08:59:12;;;;;;;10.45;6.40;;;;;;;9.89;55.16;100948.19;5087298;28;20083;-30
2022/11/26 09:01:37;;;;;;;12.95;7.50;;;;;;;9.76;55.87;100946.25;5087300;28;20533;-27
2022/11/26 09:04:03;;;;;;;13.40;8.15;;;;;;;10.17;54.87;100954.34;5087041;28;20027;-28
2022/11/26 09:06:31;;;;;;;12.23;7.10;;;;;;;9.95;54.31;100931.44;5086975;28;20032;-25
2022/11/26 09:09:11;;;;;;;16.50;7.85;;;;;;;10.31;54.94;100949.97;5087070;28;20039;-27
2022/11/26 09:11:43;;;;;;;12.15;7.63;;;;;;;10.36;53.84;100949.38;5087423;28;20036;-26
2022/11/26 09:14:09;;;;;;;13.10;8.18;;;;;;;10.25;53.37;100948.06;5068731;28;20027;-25
2022/11/26 09:16:34;;;;;;;11.98;7.18;;;;;;;10.14;54.60;100954.75;5086592;28;20032;-32
2022/11/26 09:19:00;;;;;;;11.35;7.78;;;;;;;10.02;54.15;100937.66;5086771;28;20024;-26
2022/11/26 09:21:26;;;;;;;12.73;7.97;;;;;;;10.44;54.63;100958.06;5068865;28;20484;-25
2022/11/26 09:23:52;;;;;;;15.98;7.65;;;;;;;10.45;53.56;100953.56;5086756;28;20028;-29
2022/11/26 09:26:20;;;;;;;16.77;9.27;;;;;;;10.57;53.21;100956.50;5086992;28;20032;-30
2022/11/26 09:28:47;;;;;;;16.13;8.60;;;;;;;11.03;52.47;100951.38;5086953;28;20028;-27
2022/11/26 09:31:13;;;;;;;11.68;7.45;;;;;;;10.90;51.48;100945.16;5086520;28;20101;-28
2022/11/26 09:33:38;;;;;;;15.90;8.45;;;;;;;10.85;52.43;100948.44;5086741;28;20762;-26
2022/11/26 09:36:06;;;;;;;17.38;8.40;;;;;;;11.13;51.36;100934.97;5086818;28;20553;-28
2022/11/26 09:38:33;;;;;;;17.70;8.68;;;;;;;11.48;50.53;100940.16;5068398;28;20101;-30
2022/11/26 09:41:23;;;;;;;13.18;6.80;;;;;;;11.72;48.83;100928.06;5086917;28;20028;-26
2022/11/26 09:44:10;;;;;;;10.48;7.13;;;;;;;11.63;48.88;100927.47;5051356;28;20050;-26
2022/11/26 09:46:55;;;;;;;12.75;7.25;;;;;;;12.33;48.69;100923.53;5086751;28;20039;-31
2022/11/26 09:49:21;;;;;;;12.50;7.15;;;;;;;13.00;47.17;100908.88;5086771;28;20052;-27
2022/11/26 09:51:51;;;;;;;14.00;7.20;;;;;;;13.00;45.95;100918.75;5087336;28;20139;-26
2022/11/26 09:54:20;;;;;;;13.18;7.03;;;;;;;13.07;45.21;100914.19;5086732;28;20063;-31
2022/11/26 09:56:52;;;;;;;10.85;6.32;;;;;;;13.16;44.60;100907.53;5086797;28;20100;-25
2022/11/26 09:59:19;;;;;;;29.77;14.85;;;;;;;13.45;44.92;100910.69;5086577;28;20036;-30
2022/11/26 10:01:44;;;;;;;133.93;47.03;;;;;;;13.43;44.80;100908.22;5068580;28;20028;-25
2022/11/26 10:04:22;;;;;;;360.42;143.13;;;;;;;13.89;42.75;100916.91;5086817;28;20423;-26
2022/11/26 10:07:07;;;;;;;;;;;;;;;13.79;42.25;100912.06;5086823;28;20093;-28
2022/11/26 10:09:51;;;;;;;34.33;13.88;;;;;;;13.81;42.43;100909.16;5089516;28;20829;-28
2022/11/26 10:12:46;;;;;;;165.23;54.42;;;;;;;14.01;41.95;100912.47;5090821;28;20089;-29
2022/11/26 10:15:14;;;;;;;43.42;18.67;;;;;;;14.53;41.27;100911.34;5051165;28;20127;-27
2022/11/26 10:17:39;;;;;;;9.93;6.20;;;;;;;14.21;41.15;100901.56;5090488;28;20085;-29
2022/11/26 10:20:29;;;;;;;10.27;5.80;;;;;;;13.74;41.44;100898.50;5072051;28;20028;-29
2022/11/26 10:23:27;;;;;;;12.48;6.10;;;;;;;14.18;41.56;100896.66;5090261;28;20038;-27
2022/11/26 10:26:03;;;;;;;8.90;5.57;;;;;;;14.31;41.79;100897.56;5083271;28;20101;-31
2022/11/26 10:28:47;;;;;;;9.65;6.03;;;;;;;14.62;39.75;100891.22;5071960;28;20028;-31
2022/11/26 10:31:24;;;;;;;10.05;5.95;;;;;;;14.86;40.54;100884.94;5090129;28;20032;-32
2022/11/26 10:33:52;;;;;;;11.27;6.65;;;;;;;14.94;38.73;100870.38;5071562;28;20519;-29
2022/11/26 10:36:35;;;;;;;11.45;6.22;;;;;;;15.08;38.49;100879.06;5071745;28;20028;-26
2022/11/26 10:39:00;;;;;;;9.27;5.63;;;;;;;14.79;39.53;100884.22;5071746;28;20046;-31
2022/11/26 10:41:29;;;;;;;11.52;6.32;;;;;;;15.16;37.80;100877.91;5089809;28;20028;-27
2022/11/26 10:43:55;;;;;;;9.32;5.60;;;;;;;15.18;37.72;100878.47;5071536;28;20036;-27
2022/11/26 10:46:33;;;;;;;11.57;6.47;;;;;;;15.57;38.43;100852.88;5071151;28;20411;-35
2022/11/26 10:49:15;;;;;;;;;;;;;;;15.56;37.32;100877.28;5071657;28;20059;-28
2022/11/26 10:51:44;;;;;;;10.45;6.10;;;;;;;15.30;38.35;100862.41;5089377;28;19916;-27
2022/11/26 10:54:24;;;;;;;49.38;22.45;;;;;;;15.18;38.06;100868.56;5089740;28;20425;-28
2022/11/26 10:56:52;;;;;;;12.80;7.28;;;;;;;14.52;39.95;100858.69;5089929;28;20529;-27
2022/11/26 10:59:33;;;;;;;86.30;38.67;;;;;;;15.78;38.08;100875.69;5089773;28;20024;-31
2022/11/26 11:02:19;;;;;;;17.67;9.43;;;;;;;16.75;36.09;100876.94;5071182;28;20169;-26
2022/11/26 11:04:51;;;;;;;24.38;11.70;;;;;;;17.15;34.95;100856.41;5089167;28;20131;-27
2022/11/26 11:07:40;;;;;;;14.18;8.98;;;;;;;17.64;34.77;100860.19;5089239;28;20028;-26
2022/11/26 11:10:08;;;;;;;9.77;5.80;;;;;;;17.71;33.67;100854.59;5089210;28;20054;-28
2022/11/26 11:12:35;;;;;;;15.45;8.43;;;;;;;18.12;33.25;100870.59;5089154;28;20111;-32
2022/11/26 11:15:18;;;;;;;1117.35;500.17;;;;;;;18.25;31.84;100860.25;5089312;28;20157;-31
2022/11/26 11:17:46;;;;;;;20.75;12.10;;;;;;;18.16;32.41;100871.72;5071181;28;20058;-32
2022/11/26 11:20:14;;;;;;;149.30;99.88;;;;;;;18.59;32.15;100867.41;5088115;28;20028;-30
2022/11/26 11:22:41;;;;;;;396.83;221.07;;;;;;;18.77;31.52;100869.78;5089136;28;20035;-30
2022/11/26 11:25:21;;;;;;;94.28;85.38;;;;;;;19.30;29.84;100878.16;5070650;28;20065;-27
2022/11/26 11:27:48;;;;;;;108.45;45.60;;;;;;;18.94;30.28;100860.78;5070846;28;20048;-30
2022/11/26 11:30:25;;;;;;;27.13;14.00;;;;;;;19.05;30.40;100840.91;5088849;28;20397;-31